sensor_id;sensor_type;location;lat;lon;timestamp;P1;durP1;ratioP1;P2;durP2;ratioP2
12059;SDS011;6091;51.432;6.880;2023-04-01T00:01:21;0.25;;;0.25;;
12059;SDS011;6091;51.432;6.880;2023-04-01T00:03:48;0.30;;;0.30;;
12059;SDS011;6091;51.432;6.880;2023-04-01T00:06:16;0.40;;;0.40;;
12059;SDS011;6091;51.432;6.880;2023-04-01T00:08:45;0.32;;;0.32;;
12059;SDS011;6091;51.432;6.880;2023-04-01T00:11:13;0.30;;;0.30;;
12059;SDS011;6091;51.432;6.880;2023-04-01T00:13:42;0.40;;;0.40;;
12059;SDS011;6091;51.432;6.880;2023-04-01T00:16:09;0.30;;;0.30;;
12059;SDS011;6091;51.432;6.880;2023-04-01T00:18:47;0.40;;;0.40;;
12059;SDS011;6091;51.432;6.880;2023-04-01T00:21:16;0.30;;;0.30;;
12059;SDS011;6091;51.432;6.880;2023-04-01T00:23:43;0.20;;;0.20;;
12059;SDS011;6091;51.432;6.880;2023-04-01T00:26:11;0.30;;;0.30;;
12059;SDS011;6091;51.432;6.880;2023-04-01T00:28:38;0.38;;;0.38;;
12059;SDS011;6091;51.432;6.880;2023-04-01T00:31:07;0.30;;;0.30;;
12059;SDS011;6091;51.432;6.880;2023-04-01T00:33:37;0.30;;;0.30;;
12059;SDS011;6091;51.432;6.880;2023-04-01T00:36:10;0.40;;;0.30;;
12059;SDS011;6091;51.432;6.880;2023-04-01T00:38:43;0.28;;;0.28;;
12059;SDS011;6091;51.432;6.880;2023-04-01T00:41:12;0.40;;;0.40;;
12059;SDS011;6091;51.432;6.880;2023-04-01T00:43:43;0.30;;;0.28;;
12059;SDS011;6091;51.432;6.880;2023-04-01T00:46:13;0.30;;;0.30;;
12059;SDS011;6091;51.432;6.880;2023-04-01T00:48:45;0.30;;;0.30;;
12059;SDS011;6091;51.432;6.880;2023-04-01T00:51:19;0.30;;;0.30;;
12059;SDS011;6091;51.432;6.880;2023-04-01T00:53:52;0.32;;;0.32;;
12059;SDS011;6091;51.432;6.880;2023-04-01T00:56:25;0.40;;;0.40;;
12059;SDS011;6091;51.432;6.880;2023-04-01T00:58:59;0.30;;;0.30;;
12059;SDS011;6091;51.432;6.880;2023-04-01T01:01:35;0.30;;;0.30;;
12059;SDS011;6091;51.432;6.880;2023-04-01T01:04:06;0.30;;;0.30;;
12059;SDS011;6091;51.432;6.880;2023-04-01T01:12:00;0.30;;;0.30;;
12059;SDS011;6091;51.432;6.880;2023-04-01T01:17:44;0.30;;;0.30;;
12059;SDS011;6091;51.432;6.880;2023-04-01T01:26:53;0.30;;;0.30;;
12059;SDS011;6091;51.432;6.880;2023-04-01T01:29:43;0.30;;;0.30;;
12059;SDS011;6091;51.432;6.880;2023-04-01T01:35:28;0.30;;;0.30;;
12059;SDS011;6091;51.432;6.880;2023-04-01T01:38:11;0.30;;;0.30;;
12059;SDS011;6091;51.432;6.880;2023-04-01T01:40:44;0.30;;;0.30;;
12059;SDS011;6091;51.432;6.880;2023-04-01T01:43:21;0.30;;;0.30;;
12059;SDS011;6091;51.432;6.880;2023-04-01T01:45:57;0.30;;;0.30;;
12059;SDS011;6091;51.432;6.880;2023-04-01T01:48:29;0.30;;;0.30;;
12059;SDS011;6091;51.432;6.880;2023-04-01T01:50:59;0.40;;;0.40;;
12059;SDS011;6091;51.432;6.880;2023-04-01T01:53:26;0.30;;;0.30;;
12059;SDS011;6091;51.432;6.880;2023-04-01T01:55:53;0.30;;;0.30;;
12059;SDS011;6091;51.432;6.880;2023-04-01T01:58:24;0.30;;;0.30;;
12059;SDS011;6091;51.432;6.880;2023-04-01T02:01:07;0.40;;;0.40;;
12059;SDS011;6091;51.432;6.880;2023-04-01T02:03:46;0.25;;;0.25;;
12059;SDS011;6091;51.432;6.880;2023-04-01T02:06:17;0.30;;;0.30;;
12059;SDS011;6091;51.432;6.880;2023-04-01T02:08:59;0.30;;;0.30;;
12059;SDS011;6091;51.432;6.880;2023-04-01T02:11:31;0.30;;;0.30;;
12059;SDS011;6091;51.432;6.880;2023-04-01T02:14:19;0.20;;;0.20;;
12059;SDS011;6091;51.432;6.880;2023-04-01T02:16:58;0.30;;;0.30;;
12059;SDS011;6091;51.432;6.880;2023-04-01T02:19:38;0.30;;;0.30;;
12059;SDS011;6091;51.432;6.880;2023-04-01T02:22:14;0.30;;;0.30;;
12059;SDS011;6091;51.432;6.880;2023-04-01T02:24:48;0.30;;;0.30;;
12059;SDS011;6091;51.432;6.880;2023-04-01T02:27:20;0.30;;;0.30;;
12059;SDS011;6091;51.432;6.880;2023-04-01T02:29:47;0.25;;;0.25;;
12059;SDS011;6091;51.432;6.880;2023-04-01T02:32:15;0.20;;;0.20;;
12059;SDS011;6091;51.432;6.880;2023-04-01T02:34:45;0.30;;;0.30;;
12059;SDS011;6091;51.432;6.880;2023-04-01T02:37:14;0.20;;;0.20;;
12059;SDS011;6091;51.432;6.880;2023-04-01T02:39:42;0.20;;;0.20;;
12059;SDS011;6091;51.432;6.880;2023-04-01T02:42:09;0.30;;;0.30;;
12059;SDS011;6091;51.432;6.880;2023-04-01T02:44:36;0.40;;;0.40;;
12059;SDS011;6091;51.432;6.880;2023-04-01T02:47:03;0.28;;;0.28;;
12059;SDS011;6091;51.432;6.880;2023-04-01T02:49:35;0.30;;;0.30;;
12059;SDS011;6091;51.432;6.880;2023-04-01T02:52:01;0.30;;;0.30;;
12059;SDS011;6091;51.432;6.880;2023-04-01T02:54:29;0.30;;;0.30;;
12059;SDS011;6091;51.432;6.880;2023-04-01T02:56:56;0.30;;;0.30;;
12059;SDS011;6091;51.432;6.880;2023-04-01T02:59:23;0.20;;;0.20;;
12059;SDS011;6091;51.432;6.880;2023-04-01T03:01:50;0.40;;;0.40;;
12059;SDS011;6091;51.432;6.880;2023-04-01T03:04:16;0.30;;;0.30;;
12059;SDS011;6091;51.432;6.880;2023-04-01T03:06:44;0.28;;;0.28;;
12059;SDS011;6091;51.432;6.880;2023-04-01T03:09:11;0.32;;;0.28;;
12059;SDS011;6091;51.432;6.880;2023-04-01T03:11:38;0.30;;;0.30;;
12059;SDS011;6091;51.432;6.880;2023-04-01T03:14:06;0.20;;;0.20;;
12059;SDS011;6091;51.432;6.880;2023-04-01T03:16:33;0.35;;;0.35;;
12059;SDS011;6091;51.432;6.880;2023-04-01T03:19:00;0.20;;;0.20;;
12059;SDS011;6091;51.432;6.880;2023-04-01T03:21:28;0.20;;;0.20;;
12059;SDS011;6091;51.432;6.880;2023-04-01T03:23:55;0.20;;;0.20;;
12059;SDS011;6091;51.432;6.880;2023-04-01T03:26:22;0.77;;;0.32;;
12059;SDS011;6091;51.432;6.880;2023-04-01T03:28:49;0.20;;;0.20;;
12059;SDS011;6091;51.432;6.880;2023-04-01T03:31:16;0.30;;;0.30;;
12059;SDS011;6091;51.432;6.880;2023-04-01T03:33:43;0.20;;;0.20;;
12059;SDS011;6091;51.432;6.880;2023-04-01T03:36:10;0.30;;;0.30;;
12059;SDS011;6091;51.432;6.880;2023-04-01T03:38:40;0.40;;;0.40;;
12059;SDS011;6091;51.432;6.880;2023-04-01T03:41:15;0.20;;;0.20;;
12059;SDS011;6091;51.432;6.880;2023-04-01T03:43:44;0.28;;;0.28;;
12059;SDS011;6091;51.432;6.880;2023-04-01T03:46:11;0.25;;;0.25;;
12059;SDS011;6091;51.432;6.880;2023-04-01T03:48:43;0.22;;;0.22;;
12059;SDS011;6091;51.432;6.880;2023-04-01T03:51:10;0.30;;;0.30;;
12059;SDS011;6091;51.432;6.880;2023-04-01T03:53:37;0.30;;;0.30;;
12059;SDS011;6091;51.432;6.880;2023-04-01T03:56:05;0.30;;;0.30;;
12059;SDS011;6091;51.432;6.880;2023-04-01T03:58:34;0.20;;;0.20;;
12059;SDS011;6091;51.432;6.880;2023-04-01T04:01:02;0.22;;;0.22;;
12059;SDS011;6091;51.432;6.880;2023-04-01T04:03:29;0.20;;;0.20;;
12059;SDS011;6091;51.432;6.880;2023-04-01T04:05:56;0.30;;;0.30;;
12059;SDS011;6091;51.432;6.880;2023-04-01T04:08:23;0.20;;;0.20;;
12059;SDS011;6091;51.432;6.880;2023-04-01T04:10:56;0.20;;;0.20;;
12059;SDS011;6091;51.432;6.880;2023-04-01T04:13:23;0.30;;;0.30;;
12059;SDS011;6091;51.432;6.880;2023-04-01T04:15:50;0.20;;;0.20;;
12059;SDS011;6091;51.432;6.880;2023-04-01T04:18:17;0.20;;;0.20;;
12059;SDS011;6091;51.432;6.880;2023-04-01T04:20:44;0.30;;;0.30;;
12059;SDS011;6091;51.432;6.880;2023-04-01T04:23:17;0.20;;;0.20;;
12059;SDS011;6091;51.432;6.880;2023-04-01T04:25:54;0.30;;;0.30;;
12059;SDS011;6091;51.432;6.880;2023-04-01T04:28:31;0.30;;;0.30;;
12059;SDS011;6091;51.432;6.880;2023-04-01T04:30:59;0.20;;;0.20;;
12059;SDS011;6091;51.432;6.880;2023-04-01T04:33:27;0.20;;;0.20;;
12059;SDS011;6091;51.432;6.880;2023-04-01T04:35:55;0.20;;;0.20;;
12059;SDS011;6091;51.432;6.880;2023-04-01T04:38:24;0.20;;;0.20;;
12059;SDS011;6091;51.432;6.880;2023-04-01T04:40:52;0.30;;;0.30;;
12059;SDS011;6091;51.432;6.880;2023-04-01T04:43:19;0.30;;;0.30;;
12059;SDS011;6091;51.432;6.880;2023-04-01T04:45:47;0.20;;;0.20;;
12059;SDS011;6091;51.432;6.880;2023-04-01T04:48:15;0.30;;;0.30;;
12059;SDS011;6091;51.432;6.880;2023-04-01T04:50:46;0.30;;;0.30;;
12059;SDS011;6091;51.432;6.880;2023-04-01T04:53:15;0.30;;;0.30;;
12059;SDS011;6091;51.432;6.880;2023-04-01T04:55:46;0.30;;;0.30;;
12059;SDS011;6091;51.432;6.880;2023-04-01T04:58:15;0.20;;;0.20;;
12059;SDS011;6091;51.432;6.880;2023-04-01T05:00:43;0.30;;;0.30;;
12059;SDS011;6091;51.432;6.880;2023-04-01T05:03:11;0.30;;;0.30;;
12059;SDS011;6091;51.432;6.880;2023-04-01T05:05:40;0.22;;;0.22;;
12059;SDS011;6091;51.432;6.880;2023-04-01T05:08:17;0.20;;;0.20;;
12059;SDS011;6091;51.432;6.880;2023-04-01T05:10:44;0.20;;;0.20;;
12059;SDS011;6091;51.432;6.880;2023-04-01T05:13:12;0.20;;;0.20;;
12059;SDS011;6091;51.432;6.880;2023-04-01T05:15:39;0.30;;;0.30;;
12059;SDS011;6091;51.432;6.880;2023-04-01T05:18:06;0.20;;;0.20;;
12059;SDS011;6091;51.432;6.880;2023-04-01T05:20:33;0.20;;;0.20;;
12059;SDS011;6091;51.432;6.880;2023-04-01T05:23:00;0.30;;;0.30;;
12059;SDS011;6091;51.432;6.880;2023-04-01T05:25:28;0.20;;;0.20;;
12059;SDS011;6091;51.432;6.880;2023-04-01T05:27:56;0.20;;;0.20;;
12059;SDS011;6091;51.432;6.880;2023-04-01T05:30:23;0.25;;;0.25;;
12059;SDS011;6091;51.432;6.880;2023-04-01T05:32:50;0.22;;;0.22;;
12059;SDS011;6091;51.432;6.880;2023-04-01T05:35:17;0.30;;;0.30;;
12059;SDS011;6091;51.432;6.880;2023-04-01T05:37:45;0.20;;;0.20;;
12059;SDS011;6091;51.432;6.880;2023-04-01T05:40:12;0.20;;;0.20;;
12059;SDS011;6091;51.432;6.880;2023-04-01T05:42:39;0.30;;;0.30;;
12059;SDS011;6091;51.432;6.880;2023-04-01T05:45:06;0.30;;;0.30;;
12059;SDS011;6091;51.432;6.880;2023-04-01T05:47:34;0.30;;;0.30;;
12059;SDS011;6091;51.432;6.880;2023-04-01T05:50:01;0.20;;;0.20;;
12059;SDS011;6091;51.432;6.880;2023-04-01T05:52:28;0.30;;;0.30;;
12059;SDS011;6091;51.432;6.880;2023-04-01T05:54:55;0.30;;;0.30;;
12059;SDS011;6091;51.432;6.880;2023-04-01T05:57:22;0.20;;;0.20;;
12059;SDS011;6091;51.432;6.880;2023-04-01T05:59:50;0.20;;;0.20;;
12059;SDS011;6091;51.432;6.880;2023-04-01T06:02:17;0.30;;;0.30;;
12059;SDS011;6091;51.432;6.880;2023-04-01T06:04:45;0.10;;;0.10;;
12059;SDS011;6091;51.432;6.880;2023-04-01T06:07:13;0.10;;;0.10;;
12059;SDS011;6091;51.432;6.880;2023-04-01T06:09:43;0.25;;;0.25;;
12059;SDS011;6091;51.432;6.880;2023-04-01T06:12:24;0.20;;;0.20;;
12059;SDS011;6091;51.432;6.880;2023-04-01T06:15:30;0.20;;;0.20;;
12059;SDS011;6091;51.432;6.880;2023-04-01T06:24:22;0.28;;;0.28;;
12059;SDS011;6091;51.432;6.880;2023-04-01T06:30:24;0.28;;;0.28;;
12059;SDS011;6091;51.432;6.880;2023-04-01T06:39:02;0.22;;;0.22;;
12059;SDS011;6091;51.432;6.880;2023-04-01T06:53:33;0.30;;;0.25;;
12059;SDS011;6091;51.432;6.880;2023-04-01T06:56:20;0.20;;;0.20;;
12059;SDS011;6091;51.432;6.880;2023-04-01T06:58:53;0.30;;;0.30;;
12059;SDS011;6091;51.432;6.880;2023-04-01T07:01:59;0.28;;;0.28;;
12059;SDS011;6091;51.432;6.880;2023-04-01T07:04:43;0.30;;;0.30;;
12059;SDS011;6091;51.432;6.880;2023-04-01T07:16:08;0.30;;;0.30;;
12059;SDS011;6091;51.432;6.880;2023-04-01T07:18:53;0.25;;;0.25;;
12059;SDS011;6091;51.432;6.880;2023-04-01T07:21:36;0.20;;;0.20;;
12059;SDS011;6091;51.432;6.880;2023-04-01T07:24:22;0.40;;;0.30;;
12059;SDS011;6091;51.432;6.880;2023-04-01T07:26:58;0.30;;;0.30;;
12059;SDS011;6091;51.432;6.880;2023-04-01T07:29:26;0.32;;;0.32;;
12059;SDS011;6091;51.432;6.880;2023-04-01T07:32:04;0.20;;;0.20;;
12059;SDS011;6091;51.432;6.880;2023-04-01T07:44:54;0.30;;;0.30;;
12059;SDS011;6091;51.432;6.880;2023-04-01T07:50:32;3.95;;;0.40;;
12059;SDS011;6091;51.432;6.880;2023-04-01T07:56:12;3.15;;;0.57;;
12059;SDS011;6091;51.432;6.880;2023-04-01T07:59:16;1.27;;;0.47;;
12059;SDS011;6091;51.432;6.880;2023-04-01T08:05:40;1.05;;;0.50;;
12059;SDS011;6091;51.432;6.880;2023-04-01T08:14:16;0.77;;;0.50;;
12059;SDS011;6091;51.432;6.880;2023-04-01T08:20:14;0.50;;;0.40;;
12059;SDS011;6091;51.432;6.880;2023-04-01T08:23:07;1.30;;;0.50;;
12059;SDS011;6091;51.432;6.880;2023-04-01T08:25:45;0.40;;;0.40;;
12059;SDS011;6091;51.432;6.880;2023-04-01T08:28:32;0.52;;;0.35;;
12059;SDS011;6091;51.432;6.880;2023-04-01T08:31:25;0.90;;;0.40;;
12059;SDS011;6091;51.432;6.880;2023-04-01T08:33:58;1.40;;;0.55;;
12059;SDS011;6091;51.432;6.880;2023-04-01T08:36:32;0.75;;;0.63;;
12059;SDS011;6091;51.432;6.880;2023-04-01T08:39:13;0.80;;;0.50;;
12059;SDS011;6091;51.432;6.880;2023-04-01T08:44:37;0.45;;;0.40;;
12059;SDS011;6091;51.432;6.880;2023-04-01T09:01:34;0.45;;;0.35;;
12059;SDS011;6091;51.432;6.880;2023-04-01T09:07:59;0.55;;;0.50;;
12059;SDS011;6091;51.432;6.880;2023-04-01T09:21:52;1.08;;;0.40;;
12059;SDS011;6091;51.432;6.880;2023-04-01T09:31:11;0.75;;;0.50;;
12059;SDS011;6091;51.432;6.880;2023-04-01T09:37:34;1.17;;;0.60;;
12059;SDS011;6091;51.432;6.880;2023-04-01T09:40:15;1.58;;;0.60;;
12059;SDS011;6091;51.432;6.880;2023-04-01T09:52:01;0.60;;;0.60;;
12059;SDS011;6091;51.432;6.880;2023-04-01T10:22:16;2.75;;;0.70;;
12059;SDS011;6091;51.432;6.880;2023-04-01T10:25:29;4.53;;;0.80;;
12059;SDS011;6091;51.432;6.880;2023-04-01T11:01:41;1.23;;;0.80;;
12059;SDS011;6091;51.432;6.880;2023-04-01T11:05:02;1.15;;;0.60;;
12059;SDS011;6091;51.432;6.880;2023-04-01T11:16:59;1.90;;;0.77;;
12059;SDS011;6091;51.432;6.880;2023-04-01T11:20:13;2.00;;;0.80;;
12059;SDS011;6091;51.432;6.880;2023-04-01T11:26:32;2.03;;;0.75;;
12059;SDS011;6091;51.432;6.880;2023-04-01T11:35:19;1.92;;;0.73;;
12059;SDS011;6091;51.432;6.880;2023-04-01T11:41:11;0.50;;;0.50;;
12059;SDS011;6091;51.432;6.880;2023-04-01T11:46:52;1.33;;;0.68;;
12059;SDS011;6091;51.432;6.880;2023-04-01T11:49:44;0.70;;;0.60;;
12059;SDS011;6091;51.432;6.880;2023-04-01T12:01:43;1.52;;;0.82;;
12059;SDS011;6091;51.432;6.880;2023-04-01T12:04:41;1.83;;;0.70;;
12059;SDS011;6091;51.432;6.880;2023-04-01T12:10:48;1.85;;;0.60;;
12059;SDS011;6091;51.432;6.880;2023-04-01T12:20:09;0.73;;;0.50;;
12059;SDS011;6091;51.432;6.880;2023-04-01T12:37:39;0.50;;;0.50;;
12059;SDS011;6091;51.432;6.880;2023-04-01T12:43:42;0.90;;;0.50;;
12059;SDS011;6091;51.432;6.880;2023-04-01T12:49:19;0.80;;;0.73;;
12059;SDS011;6091;51.432;6.880;2023-04-01T12:52:58;0.60;;;0.40;;
12059;SDS011;6091;51.432;6.880;2023-04-01T12:55:34;0.60;;;0.50;;
12059;SDS011;6091;51.432;6.880;2023-04-01T13:01:22;0.55;;;0.50;;
12059;SDS011;6091;51.432;6.880;2023-04-01T13:07:50;0.45;;;0.45;;
12059;SDS011;6091;51.432;6.880;2023-04-01T13:16:54;0.50;;;0.47;;
12059;SDS011;6091;51.432;6.880;2023-04-01T13:19:51;0.50;;;0.40;;
12059;SDS011;6091;51.432;6.880;2023-04-01T13:22:49;0.60;;;0.40;;
12059;SDS011;6091;51.432;6.880;2023-04-01T13:25:54;0.52;;;0.40;;
12059;SDS011;6091;51.432;6.880;2023-04-01T13:28:43;0.50;;;0.40;;
12059;SDS011;6091;51.432;6.880;2023-04-01T13:31:55;0.65;;;0.60;;
12059;SDS011;6091;51.432;6.880;2023-04-01T13:44:00;1.58;;;0.50;;
12059;SDS011;6091;51.432;6.880;2023-04-01T13:59:10;0.40;;;0.40;;
12059;SDS011;6091;51.432;6.880;2023-04-01T14:14:26;0.30;;;0.30;;
12059;SDS011;6091;51.432;6.880;2023-04-01T14:17:21;0.50;;;0.50;;
12059;SDS011;6091;51.432;6.880;2023-04-01T14:23:35;0.47;;;0.45;;
12059;SDS011;6091;51.432;6.880;2023-04-01T14:34:59;0.65;;;0.63;;
12059;SDS011;6091;51.432;6.880;2023-04-01T14:40:56;1.02;;;0.60;;
12059;SDS011;6091;51.432;6.880;2023-04-01T14:46:30;2.95;;;0.70;;
12059;SDS011;6091;51.432;6.880;2023-04-01T14:52:03;0.57;;;0.57;;
12059;SDS011;6091;51.432;6.880;2023-04-01T14:54:42;1.55;;;0.85;;
12059;SDS011;6091;51.432;6.880;2023-04-01T14:57:16;1.00;;;0.50;;
12059;SDS011;6091;51.432;6.880;2023-04-01T15:00:12;1.65;;;0.70;;
12059;SDS011;6091;51.432;6.880;2023-04-01T15:05:39;0.57;;;0.47;;
12059;SDS011;6091;51.432;6.880;2023-04-01T15:08:34;1.63;;;0.70;;
12059;SDS011;6091;51.432;6.880;2023-04-01T15:16:01;0.93;;;0.80;;
12059;SDS011;6091;51.432;6.880;2023-04-01T15:28:43;1.10;;;0.70;;
12059;SDS011;6091;51.432;6.880;2023-04-01T15:31:14;1.38;;;0.65;;
12059;SDS011;6091;51.432;6.880;2023-04-01T15:37:12;1.75;;;0.82;;
12059;SDS011;6091;51.432;6.880;2023-04-01T15:40:35;0.77;;;0.60;;
12059;SDS011;6091;51.432;6.880;2023-04-01T15:43:16;1.63;;;0.82;;
12059;SDS011;6091;51.432;6.880;2023-04-01T15:46:08;0.93;;;0.63;;
12059;SDS011;6091;51.432;6.880;2023-04-01T15:49:13;0.68;;;0.40;;
12059;SDS011;6091;51.432;6.880;2023-04-01T15:57:40;2.75;;;0.70;;
12059;SDS011;6091;51.432;6.880;2023-04-01T16:03:43;0.73;;;0.40;;
12059;SDS011;6091;51.432;6.880;2023-04-01T16:22:55;0.93;;;0.43;;
12059;SDS011;6091;51.432;6.880;2023-04-01T16:28:20;0.43;;;0.43;;
12059;SDS011;6091;51.432;6.880;2023-04-01T16:31:29;0.47;;;0.47;;
12059;SDS011;6091;51.432;6.880;2023-04-01T16:35:05;1.30;;;0.60;;
12059;SDS011;6091;51.432;6.880;2023-04-01T16:38:05;1.30;;;0.60;;
12059;SDS011;6091;51.432;6.880;2023-04-01T16:41:29;0.40;;;0.35;;
12059;SDS011;6091;51.432;6.880;2023-04-01T16:46:54;0.45;;;0.43;;
12059;SDS011;6091;51.432;6.880;2023-04-01T16:49:54;0.82;;;0.60;;
12059;SDS011;6091;51.432;6.880;2023-04-01T16:52:57;0.47;;;0.47;;
12059;SDS011;6091;51.432;6.880;2023-04-01T16:55:46;0.40;;;0.40;;
12059;SDS011;6091;51.432;6.880;2023-04-01T16:58:38;0.68;;;0.50;;
12059;SDS011;6091;51.432;6.880;2023-04-01T17:01:20;0.50;;;0.50;;
12059;SDS011;6091;51.432;6.880;2023-04-01T17:04:00;0.65;;;0.60;;
12059;SDS011;6091;51.432;6.880;2023-04-01T17:09:59;2.15;;;0.52;;
12059;SDS011;6091;51.432;6.880;2023-04-01T17:23:49;0.20;;;0.20;;
12059;SDS011;6091;51.432;6.880;2023-04-01T17:26:37;0.50;;;0.40;;
12059;SDS011;6091;51.432;6.880;2023-04-01T17:29:15;0.40;;;0.40;;
12059;SDS011;6091;51.432;6.880;2023-04-01T17:32:35;0.73;;;0.60;;
12059;SDS011;6091;51.432;6.880;2023-04-01T17:43:12;0.30;;;0.30;;
12059;SDS011;6091;51.432;6.880;2023-04-01T17:46:08;0.50;;;0.50;;
12059;SDS011;6091;51.432;6.880;2023-04-01T17:49:17;0.52;;;0.50;;
12059;SDS011;6091;51.432;6.880;2023-04-01T17:52:21;2.33;;;0.40;;
12059;SDS011;6091;51.432;6.880;2023-04-01T17:55:22;0.43;;;0.43;;
12059;SDS011;6091;51.432;6.880;2023-04-01T17:58:21;0.25;;;0.25;;
12059;SDS011;6091;51.432;6.880;2023-04-01T18:13:14;2.10;;;0.55;;
12059;SDS011;6091;51.432;6.880;2023-04-01T18:16:09;0.30;;;0.30;;
12059;SDS011;6091;51.432;6.880;2023-04-01T18:22:21;0.57;;;0.50;;
12059;SDS011;6091;51.432;6.880;2023-04-01T18:28:13;1.45;;;0.40;;
12059;SDS011;6091;51.432;6.880;2023-04-01T18:33:31;0.50;;;0.50;;
12059;SDS011;6091;51.432;6.880;2023-04-01T18:39:11;0.47;;;0.40;;
12059;SDS011;6091;51.432;6.880;2023-04-01T18:44:50;0.30;;;0.30;;
12059;SDS011;6091;51.432;6.880;2023-04-01T18:50:40;0.50;;;0.50;;
12059;SDS011;6091;51.432;6.880;2023-04-01T18:53:39;0.40;;;0.40;;
12059;SDS011;6091;51.432;6.880;2023-04-01T18:57:28;0.40;;;0.40;;
12059;SDS011;6091;51.432;6.880;2023-04-01T18:59:53;0.40;;;0.38;;
12059;SDS011;6091;51.432;6.880;2023-04-01T19:02:34;0.52;;;0.40;;
12059;SDS011;6091;51.432;6.880;2023-04-01T19:07:49;0.40;;;0.40;;
12059;SDS011;6091;51.432;6.880;2023-04-01T19:20:16;0.40;;;0.40;;
12059;SDS011;6091;51.432;6.880;2023-04-01T19:25:42;0.40;;;0.30;;
12059;SDS011;6091;51.432;6.880;2023-04-01T19:28:22;0.50;;;0.50;;
12059;SDS011;6091;51.432;6.880;2023-04-01T19:36:45;0.30;;;0.30;;
12059;SDS011;6091;51.432;6.880;2023-04-01T19:42:15;0.30;;;0.30;;
12059;SDS011;6091;51.432;6.880;2023-04-01T19:53:59;0.30;;;0.30;;
12059;SDS011;6091;51.432;6.880;2023-04-01T19:57:00;0.30;;;0.30;;
12059;SDS011;6091;51.432;6.880;2023-04-01T20:02:45;0.20;;;0.20;;
12059;SDS011;6091;51.432;6.880;2023-04-01T20:11:55;0.30;;;0.30;;
12059;SDS011;6091;51.432;6.880;2023-04-01T20:14:34;0.30;;;0.30;;
12059;SDS011;6091;51.432;6.880;2023-04-01T20:17:38;0.95;;;0.40;;
12059;SDS011;6091;51.432;6.880;2023-04-01T20:30:52;0.30;;;0.30;;
12059;SDS011;6091;51.432;6.880;2023-04-01T20:45:18;0.20;;;0.20;;
12059;SDS011;6091;51.432;6.880;2023-04-01T20:53:43;0.30;;;0.30;;
12059;SDS011;6091;51.432;6.880;2023-04-01T20:56:46;0.20;;;0.20;;
12059;SDS011;6091;51.432;6.880;2023-04-01T21:00:03;0.30;;;0.30;;
12059;SDS011;6091;51.432;6.880;2023-04-01T21:06:02;0.30;;;0.30;;
12059;SDS011;6091;51.432;6.880;2023-04-01T21:21:02;0.35;;;0.35;;
12059;SDS011;6091;51.432;6.880;2023-04-01T21:26:18;0.30;;;0.30;;
12059;SDS011;6091;51.432;6.880;2023-04-01T21:34:40;0.20;;;0.20;;
12059;SDS011;6091;51.432;6.880;2023-04-01T21:37:36;0.30;;;0.30;;
12059;SDS011;6091;51.432;6.880;2023-04-01T21:41:08;0.30;;;0.30;;
12059;SDS011;6091;51.432;6.880;2023-04-01T21:43:49;0.22;;;0.22;;
12059;SDS011;6091;51.432;6.880;2023-04-01T21:46:49;0.35;;;0.35;;
12059;SDS011;6091;51.432;6.880;2023-04-01T21:49:56;0.30;;;0.30;;
12059;SDS011;6091;51.432;6.880;2023-04-01T22:08:08;0.20;;;0.20;;
12059;SDS011;6091;51.432;6.880;2023-04-01T22:11:18;0.30;;;0.30;;
12059;SDS011;6091;51.432;6.880;2023-04-01T22:14:07;0.30;;;0.30;;
12059;SDS011;6091;51.432;6.880;2023-04-01T22:17:04;0.40;;;0.30;;
12059;SDS011;6091;51.432;6.880;2023-04-01T22:23:02;0.30;;;0.30;;
12059;SDS011;6091;51.432;6.880;2023-04-01T22:29:17;0.20;;;0.20;;
12059;SDS011;6091;51.432;6.880;2023-04-01T22:32:15;0.30;;;0.30;;
12059;SDS011;6091;51.432;6.880;2023-04-01T22:43:39;0.22;;;0.22;;
12059;SDS011;6091;51.432;6.880;2023-04-01T22:49:27;0.25;;;0.25;;
12059;SDS011;6091;51.432;6.880;2023-04-01T22:52:18;0.28;;;0.28;;
12059;SDS011;6091;51.432;6.880;2023-04-01T22:55:41;0.30;;;0.30;;
12059;SDS011;6091;51.432;6.880;2023-04-01T22:57:57;0.52;;;0.32;;
12059;SDS011;6091;51.432;6.880;2023-04-01T23:00:26;0.30;;;0.30;;
12059;SDS011;6091;51.432;6.880;2023-04-01T23:03:19;0.22;;;0.22;;
12059;SDS011;6091;51.432;6.880;2023-04-01T23:05:52;0.30;;;0.30;;
12059;SDS011;6091;51.432;6.880;2023-04-01T23:11:22;0.22;;;0.22;;
12059;SDS011;6091;51.432;6.880;2023-04-01T23:14:20;0.28;;;0.28;;
12059;SDS011;6091;51.432;6.880;2023-04-01T23:17:22;0.30;;;0.30;;
12059;SDS011;6091;51.432;6.880;2023-04-01T23:22:59;0.30;;;0.20;;
12059;SDS011;6091;51.432;6.880;2023-04-01T23:34:28;0.20;;;0.20;;
12059;SDS011;6091;51.432;6.880;2023-04-01T23:37:02;0.70;;;0.32;;
12059;SDS011;6091;51.432;6.880;2023-04-01T23:39:36;0.30;;;0.30;;
12059;SDS011;6091;51.432;6.880;2023-04-01T23:42:14;0.20;;;0.20;;
12059;SDS011;6091;51.432;6.880;2023-04-01T23:45:05;0.30;;;0.30;;
12059;SDS011;6091;51.432;6.880;2023-04-01T23:47:48;0.20;;;0.20;;
12059;SDS011;6091;51.432;6.880;2023-04-01T23:50:17;0.20;;;0.20;;
12059;SDS011;6091;51.432;6.880;2023-04-01T23:52:58;0.28;;;0.28;;
12059;SDS011;6091;51.432;6.880;2023-04-01T23:55:40;0.20;;;0.20;;
